createdAt,value
2019-05-16T00:00:35.384Z,96813.88
2019-05-16T00:01:43.012Z,96815.74
2019-05-16T00:02:50.564Z,96811.85
2019-05-16T00:03:58.135Z,96808.06
2019-05-16T00:05:08.245Z,96809.83
2019-05-16T00:06:15.224Z,96804.28
2019-05-16T00:07:22.822Z,96805.58
2019-05-16T00:08:30.426Z,96803.09
2019-05-16T00:09:38.276Z,96799.19
2019-05-16T00:10:45.957Z,96799.19
2019-05-16T00:11:55.133Z,96801.32
2019-05-16T00:13:02.734Z,96795.77
2019-05-16T00:14:10.307Z,96787.98
2019-05-16T00:15:18.418Z,96792.34
2019-05-16T00:16:26.075Z,96791.05
2019-05-16T00:17:33.647Z,96792.81
2019-05-16T00:18:41.328Z,96792.45
2019-05-16T00:19:48.923Z,96796.34
2019-05-16T00:20:58.490Z,96786.93
2019-05-16T00:22:05.789Z,96789.99
2019-05-16T00:23:13.366Z,96783.25
2019-05-16T00:24:20.948Z,96782.89
2019-05-16T00:25:28.844Z,96778.17
2019-05-16T00:26:38.571Z,96777.44
2019-05-16T00:27:47.729Z,96781.44
2019-05-16T00:28:55.101Z,96779.52
2019-05-16T00:30:02.766Z,96778.69
2019-05-16T00:31:11.336Z,96770.22
2019-05-16T00:32:19.208Z,96770.22
2019-05-16T00:33:28.639Z,96773.74
2019-05-16T00:34:38.350Z,96769.02
2019-05-16T00:35:45.505Z,96769.13
2019-05-16T00:36:53.115Z,96770.53
2019-05-16T00:38:00.698Z,96767.11
2019-05-16T00:39:08.578Z,96765.45
2019-05-16T00:40:18.577Z,96762.49
2019-05-16T00:41:25.527Z,96758.23
2019-05-16T00:42:33.092Z,96761.30
2019-05-16T00:43:40.690Z,96757.52
2019-05-16T00:44:48.291Z,96764.00
2019-05-16T00:45:55.983Z,96758.81
2019-05-16T00:47:03.571Z,96755.42
2019-05-16T00:48:11.141Z,96755.89
2019-05-16T00:49:18.920Z,96756.22
2019-05-16T00:50:28.565Z,96755.06
2019-05-16T00:51:37.714Z,96754.23
2019-05-16T00:52:45.100Z,96746.91
2019-05-16T00:53:52.697Z,96747.38
2019-05-16T00:55:00.298Z,96745.69
2019-05-16T00:56:08.498Z,96742.73
2019-05-16T00:57:18.859Z,96740.61
2019-05-16T00:58:28.497Z,96743.67
2019-05-16T00:59:38.173Z,96740.25
2019-05-16T01:00:50.577Z,96739.05
2019-05-16T01:01:58.833Z,96742.58
2019-05-16T01:03:08.123Z,96739.63
2019-05-16T01:04:18.257Z,96738.33
2019-05-16T01:05:28.311Z,96735.84
2019-05-16T01:06:35.422Z,96730.66
2019-05-16T01:07:42.990Z,96737.61
2019-05-16T01:08:50.560Z,96735.48
2019-05-16T01:09:58.373Z,96733.72
2019-05-16T01:11:07.948Z,96731.13
2019-05-16T01:12:17.703Z,96731.13
2019-05-16T01:13:24.705Z,96724.31
2019-05-16T01:14:32.299Z,96724.31
2019-05-16T01:15:40.005Z,96725.61
2019-05-16T01:16:48.777Z,96722.52
2019-05-16T01:17:58.715Z,96722.05
2019-05-16T01:19:08.284Z,96721.22
2019-05-16T01:20:15.406Z,96721.72
2019-05-16T01:21:22.995Z,96729.49
2019-05-16T01:22:30.582Z,96724.88
2019-05-16T01:23:38.806Z,96728.77
2019-05-16T01:24:49.078Z,96717.93
2019-05-16T01:25:55.837Z,96716.17
2019-05-16T01:27:03.427Z,96717.20
2019-05-16T01:28:11.098Z,96714.97
2019-05-16T01:29:18.967Z,96711.09
2019-05-16T01:30:28.700Z,96711.09
2019-05-16T01:31:37.900Z,96712.85
2019-05-16T01:32:45.259Z,96704.71
2019-05-16T01:33:52.822Z,96700.92
2019-05-16T01:35:00.424Z,96702.22
2019-05-16T01:36:08.987Z,96698.33
2019-05-16T01:37:18.594Z,96695.84
2019-05-16T01:38:28.479Z,96695.38
2019-05-16T01:39:38.163Z,96696.31
2019-05-16T01:40:45.557Z,96692.99
2019-05-16T01:41:53.170Z,96697.35
2019-05-16T01:43:00.740Z,96691.70
2019-05-16T01:44:08.343Z,96691.70
2019-05-16T01:45:18.634Z,96691.23
2019-05-16T01:46:25.523Z,96689.57
2019-05-16T01:47:33.121Z,96690.51
2019-05-16T01:48:40.729Z,96685.32
2019-05-16T01:49:48.884Z,96677.55
2019-05-16T01:50:58.405Z,96680.50
2019-05-16T01:52:08.299Z,96677.55
2019-05-16T01:53:17.917Z,96673.66
2019-05-16T01:54:28.315Z,96674.12
2019-05-16T01:55:37.944Z,96679.91
2019-05-16T01:56:45.195Z,96673.90
2019-05-16T01:57:52.768Z,96670.48
2019-05-16T01:59:00.357Z,96665.77
2019-05-16T02:00:08.914Z,96667.05
2019-05-16T02:01:18.939Z,96668.72
2019-05-16T02:02:28.912Z,96665.77
2019-05-16T02:03:38.607Z,96665.86
2019-05-16T02:04:45.724Z,96667.27
2019-05-16T02:05:53.292Z,96660.42
2019-05-16T02:07:00.914Z,96663.02
2019-05-16T02:08:08.985Z,96665.61
2019-05-16T02:09:18.915Z,96660.89
2019-05-16T02:10:28.459Z,96657.58
2019-05-16T02:11:36.057Z,96652.86
2019-05-16T02:12:43.666Z,96655.09
2019-05-16T02:13:51.253Z,96652.13
2019-05-16T02:14:58.857Z,96648.84
2019-05-16T02:16:08.270Z,96648.71
2019-05-16T02:17:18.144Z,96640.24
2019-05-16T02:18:25.004Z,96652.38
2019-05-16T02:19:33.555Z,96655.07
2019-05-16T02:20:41.119Z,96651.28
2019-05-16T02:21:50.618Z,96652.22
2019-05-16T02:22:58.565Z,96648.34
2019-05-16T02:24:08.685Z,96651.86
2019-05-16T02:25:18.333Z,96651.97
2019-05-16T02:26:25.439Z,96652.89
2019-05-16T02:27:33.069Z,96648.64
2019-05-16T02:28:43.698Z,96649.95
2019-05-16T02:29:50.694Z,96646.88
2019-05-16T02:31:01.341Z,96649.95
2019-05-16T02:32:11.484Z,96646.06
2019-05-16T02:33:20.867Z,96644.40
2019-05-16T02:34:30.612Z,96649.58
2019-05-16T02:35:36.521Z,96646.98
2019-05-16T02:36:44.122Z,96646.66
2019-05-16T02:37:55.095Z,96648.75
2019-05-16T02:39:01.970Z,96647.45
2019-05-16T02:40:12.456Z,96639.22
2019-05-16T02:41:21.611Z,96642.27
2019-05-16T02:42:30.967Z,96634.86
2019-05-16T02:43:41.690Z,96630.98
2019-05-16T02:44:50.999Z,96628.38
2019-05-16T02:45:57.336Z,96636.16
2019-05-16T02:47:04.939Z,96623.67
2019-05-16T02:48:12.559Z,96627.55
2019-05-16T02:49:21.644Z,96624.97
2019-05-16T02:50:31.536Z,96624.97
2019-05-16T02:51:40.647Z,96621.08
2019-05-16T02:52:47.954Z,96622.84
2019-05-16T02:53:55.523Z,96621.55
2019-05-16T02:55:03.127Z,96617.19
2019-05-16T02:56:12.320Z,96613.77
2019-05-16T02:57:21.331Z,96617.09
2019-05-16T02:58:30.739Z,96612.01
2019-05-16T02:59:41.584Z,96616.72
2019-05-16T03:00:51.415Z,96608.13
2019-05-16T03:02:00.771Z,96610.38
2019-05-16T03:04:34.986Z,96611.42
2019-05-16T03:05:44.777Z,96603.28
2019-05-16T03:06:53.057Z,96608.36
2019-05-16T03:09:30.437Z,96599.30
2019-05-16T03:12:05.231Z,96597.27
2019-05-16T03:16:12.401Z,96599.61
2019-05-16T03:18:54.336Z,96599.25
2019-05-16T03:20:02.945Z,96599.81
2019-05-16T03:24:11.000Z,96598.16
2019-05-16T03:25:17.185Z,96602.16
2019-05-16T03:26:24.697Z,96598.62
2019-05-16T03:31:54.375Z,96596.40
2019-05-16T03:33:04.848Z,96596.87
2019-05-16T03:34:15.907Z,96592.88
2019-05-16T03:38:12.794Z,96597.59
2019-05-16T03:43:41.425Z,96590.49
2019-05-16T03:44:51.211Z,96586.74
2019-05-16T03:46:02.152Z,96593.58
2019-05-16T03:47:07.563Z,96591.92
2019-05-16T03:48:15.152Z,96594.52
2019-05-16T03:49:22.755Z,96590.27
2019-05-16T03:50:30.727Z,96593.69
2019-05-16T03:51:41.218Z,96594.52
2019-05-16T03:52:50.550Z,96598.77
2019-05-16T03:53:56.979Z,96599.56
2019-05-16T03:55:04.879Z,96592.15
2019-05-16T03:56:12.464Z,96596.03
2019-05-16T03:57:21.258Z,96589.56
2019-05-16T03:58:31.035Z,96588.63
2019-05-16T03:59:40.847Z,96588.16
2019-05-16T04:00:54.610Z,96588.98
2019-05-16T04:02:02.305Z,96584.73
2019-05-16T04:03:11.689Z,96581.42
2019-05-16T04:04:20.825Z,96587.91
2019-05-16T04:05:31.675Z,96583.22
2019-05-16T04:06:37.897Z,96578.04
2019-05-16T04:07:45.467Z,96584.52
2019-05-16T04:08:53.061Z,96578.83
2019-05-16T04:10:02.264Z,96579.66
2019-05-16T04:11:11.713Z,96582.61
2019-05-16T04:12:21.460Z,96580.03
2019-05-16T04:13:31.370Z,96580.39
2019-05-16T04:14:40.901Z,96575.56
2019-05-16T04:15:47.462Z,96578.16
2019-05-16T04:16:55.062Z,96578.63
2019-05-16T04:18:02.664Z,96578.16
2019-05-16T04:19:11.592Z,96574.27
2019-05-16T04:20:21.505Z,96572.98
2019-05-16T04:21:32.282Z,96570.85
2019-05-16T04:22:40.829Z,96576.03
2019-05-16T04:23:50.607Z,96572.98
2019-05-16T04:24:57.627Z,96572.61
2019-05-16T04:26:05.231Z,96579.09
2019-05-16T04:27:12.966Z,96581.32
2019-05-16T04:28:21.779Z,96576.50
2019-05-16T04:29:31.638Z,96576.50
2019-05-16T04:30:41.500Z,96571.78
2019-05-16T04:31:50.923Z,96574.38
2019-05-16T04:33:01.799Z,96577.91
2019-05-16T04:34:11.488Z,96575.78
2019-05-16T04:35:17.614Z,96574.48
2019-05-16T04:36:25.200Z,96574.48
2019-05-16T04:37:32.782Z,96571.06
2019-05-16T04:38:46.508Z,96572.25
2019-05-16T04:39:50.838Z,96567.90
2019-05-16T04:41:01.183Z,96569.55
2019-05-16T04:42:10.830Z,96569.20
2019-05-16T04:43:17.026Z,96568.37
2019-05-16T04:44:24.610Z,96570.95
2019-05-16T04:45:32.200Z,96562.36
2019-05-16T04:46:41.108Z,96562.25
2019-05-16T04:47:51.250Z,96566.14
2019-05-16T04:49:01.469Z,96563.08
2019-05-16T04:50:11.245Z,96563.55
2019-05-16T04:51:17.542Z,96561.42
2019-05-16T04:52:25.153Z,96559.30
2019-05-16T04:53:32.799Z,96561.31
2019-05-16T04:54:42.011Z,96558.26
2019-05-16T04:55:51.407Z,96559.92
2019-05-16T04:57:01.567Z,96560.38
2019-05-16T04:58:10.636Z,96559.45
2019-05-16T04:59:20.723Z,96553.91
2019-05-16T05:00:27.061Z,96552.25
2019-05-16T05:01:34.646Z,96554.84
2019-05-16T05:02:42.225Z,96555.20
2019-05-16T05:04:01.943Z,96552.97
2019-05-16T05:05:01.269Z,96556.39
2019-05-16T05:06:11.142Z,96552.87
2019-05-16T05:07:20.462Z,96549.34
2019-05-16T05:08:27.004Z,96551.11
2019-05-16T05:09:34.590Z,96546.75
2019-05-16T05:10:42.192Z,96550.06
2019-05-16T05:11:51.923Z,96546.64
2019-05-16T05:13:01.631Z,96543.59
2019-05-16T05:14:10.439Z,96545.24
2019-05-16T05:15:17.972Z,96543.59
2019-05-16T05:16:25.535Z,96544.05
2019-05-16T05:17:33.107Z,96544.05
2019-05-16T05:18:41.043Z,96544.88
2019-05-16T05:19:50.676Z,96546.64
2019-05-16T05:21:00.615Z,96542.39
2019-05-16T05:22:07.367Z,96552.77
2019-05-16T05:23:14.952Z,96549.81
2019-05-16T05:24:22.522Z,96546.39
2019-05-16T05:25:30.829Z,96540.37
2019-05-16T05:26:41.126Z,96543.33
2019-05-16T05:27:49.943Z,96542.86
2019-05-16T05:28:57.054Z,96542.03
2019-05-16T05:30:04.760Z,96541.67
2019-05-16T05:31:12.345Z,96537.32
2019-05-16T05:32:20.204Z,96539.45
2019-05-16T05:33:29.965Z,96533.33
2019-05-16T05:34:37.115Z,96534.63
2019-05-16T05:35:44.738Z,96538.15
2019-05-16T05:36:52.304Z,96536.02
2019-05-16T05:38:00.388Z,96530.38
2019-05-16T05:39:12.901Z,96535.09
2019-05-16T05:40:20.039Z,96530.73
2019-05-16T05:41:27.491Z,96534.52
2019-05-16T05:42:35.093Z,96537.94
2019-05-16T05:43:42.690Z,96537.47
2019-05-16T05:44:50.854Z,96540.28
2019-05-16T05:46:00.708Z,96534.99
2019-05-16T05:47:07.969Z,96542.19
2019-05-16T05:48:15.541Z,96537.84
2019-05-16T05:49:23.171Z,96533.37
2019-05-16T05:50:30.803Z,96530.20
2019-05-16T05:51:40.448Z,96527.51
2019-05-16T05:52:47.686Z,96529.98
2019-05-16T05:53:55.273Z,96535.50
2019-05-16T05:55:02.859Z,96529.02
2019-05-16T05:56:11.316Z,96536.80
2019-05-16T05:57:20.878Z,96534.67
2019-05-16T05:58:30.888Z,96535.97
2019-05-16T05:59:40.279Z,96533.87
2019-05-16T06:00:47.151Z,96535.28
2019-05-16T06:01:54.740Z,96532.33
2019-05-16T06:03:02.337Z,96532.80
2019-05-16T06:04:10.632Z,96534.45
2019-05-16T06:05:20.157Z,96531.29
2019-05-16T06:06:30.261Z,96536.80
2019-05-16T06:07:36.908Z,96528.09
2019-05-16T06:08:44.523Z,96528.81
2019-05-16T06:09:56.244Z,96527.77
2019-05-16T06:11:01.379Z,96530.61
2019-05-16T06:12:10.534Z,96531.33
2019-05-16T06:13:20.491Z,96527.80
2019-05-16T06:14:30.454Z,96524.23
2019-05-16T06:15:36.916Z,96522.94
2019-05-16T06:16:44.496Z,96520.85
2019-05-16T06:17:52.083Z,96519.41
2019-05-16T06:19:00.915Z,96518.94
2019-05-16T06:20:14.537Z,96521.89
2019-05-16T06:21:20.356Z,96519.77
2019-05-16T06:22:29.848Z,96519.30
2019-05-16T06:23:37.138Z,96520.24
2019-05-16T06:24:44.714Z,96515.99
2019-05-16T06:25:52.310Z,96520.35
2019-05-16T06:27:00.946Z,96513.87
2019-05-16T06:28:10.561Z,96514.23
2019-05-16T06:29:20.213Z,96514.12
2019-05-16T06:30:30.189Z,96520.95
2019-05-16T06:31:36.632Z,96513.54
2019-05-16T06:32:44.307Z,96510.84
2019-05-16T06:33:51.893Z,96515.45
2019-05-16T06:35:00.066Z,96511.91
2019-05-16T06:36:07.879Z,96507.09
2019-05-16T06:37:15.448Z,96505.69
2019-05-16T06:38:24.138Z,96500.50
2019-05-16T06:39:41.105Z,96499.67
2019-05-16T06:40:40.996Z,96500.50
2019-05-16T06:41:50.985Z,96502.13
2019-05-16T06:43:00.246Z,96500.36
2019-05-16T06:44:07.173Z,96501.66
2019-05-16T06:45:14.974Z,96500.25
2019-05-16T06:46:22.570Z,96496.14
2019-05-16T06:47:30.592Z,96498.98
2019-05-16T06:48:39.894Z,96500.27
2019-05-16T06:49:47.616Z,96490.26
2019-05-16T06:50:55.213Z,96504.08
2019-05-16T06:52:02.811Z,96499.72
2019-05-16T06:53:10.538Z,96493.95
2019-05-16T06:54:20.740Z,96494.64
2019-05-16T06:55:29.616Z,96493.70
2019-05-16T06:56:40.078Z,96497.38
2019-05-16T06:57:50.111Z,96496.44
2019-05-16T06:58:57.208Z,96498.09
2019-05-16T07:00:05.819Z,96494.67
2019-05-16T07:01:13.448Z,96501.40
2019-05-16T07:02:30.492Z,96494.44
2019-05-16T07:03:30.874Z,96499.73
2019-05-16T07:04:39.834Z,96497.03
2019-05-16T07:05:50.060Z,96498.57
2019-05-16T07:07:02.004Z,96496.69
2019-05-16T07:08:06.330Z,96492.22
2019-05-16T07:09:14.334Z,96496.47
2019-05-16T07:10:21.934Z,96492.47
2019-05-16T07:11:30.600Z,96492.67
2019-05-16T07:12:41.075Z,96492.56
2019-05-16T07:13:51.713Z,96489.86
2019-05-16T07:14:57.008Z,96491.52
2019-05-16T07:16:04.620Z,96495.29
2019-05-16T07:17:12.211Z,96487.03
2019-05-16T07:18:20.962Z,96487.28
2019-05-16T07:19:30.102Z,96488.32
2019-05-16T07:20:39.931Z,96486.44
2019-05-16T07:21:47.233Z,96490.22
2019-05-16T07:22:54.833Z,96489.27
2019-05-16T07:24:02.404Z,96488.22
2019-05-16T07:25:10.869Z,96488.58
2019-05-16T07:26:20.570Z,96490.94
2019-05-16T07:27:27.772Z,96494.22
2019-05-16T07:28:35.402Z,96496.59
2019-05-16T07:29:42.990Z,96486.09
2019-05-16T07:30:50.592Z,96480.31
2019-05-16T07:32:00.367Z,96477.60
2019-05-16T07:33:09.686Z,96471.47
2019-05-16T07:34:20.632Z,96471.94
2019-05-16T07:35:27.811Z,96469.45
2019-05-16T07:36:35.375Z,96467.80
2019-05-16T07:37:42.986Z,96473.35
2019-05-16T07:38:50.868Z,96466.75
2019-05-16T07:40:08.473Z,96472.15
2019-05-16T07:41:07.810Z,96469.79
2019-05-16T07:42:15.413Z,96463.19
2019-05-16T07:43:23.054Z,96464.72
2019-05-16T07:44:31.081Z,96473.58
2019-05-16T07:45:40.637Z,96465.20
2019-05-16T07:46:51.266Z,96468.36
2019-05-16T07:47:59.998Z,96467.77
2019-05-16T07:49:07.015Z,96465.05
2019-05-16T07:50:14.845Z,96466.23
2019-05-16T07:51:22.456Z,96459.04
2019-05-16T07:52:35.240Z,96460.55
2019-05-16T07:53:40.310Z,96457.83
2019-05-16T07:54:50.337Z,96458.42
2019-05-16T07:55:57.388Z,96456.18
2019-05-16T07:57:16.123Z,96458.66
2019-05-16T07:58:14.273Z,96459.02
2019-05-16T07:59:21.850Z,96459.72
2019-05-16T08:00:47.422Z,96456.30
2019-05-16T08:01:39.843Z,96459.25
2019-05-16T08:02:50.406Z,96456.14
2019-05-16T08:03:59.851Z,96461.34
2019-05-16T08:05:09.977Z,96456.03
2019-05-16T08:06:16.784Z,96456.38
2019-05-16T08:07:25.196Z,96454.17
2019-05-16T08:08:32.794Z,96454.88
2019-05-16T08:09:40.393Z,96461.14
2019-05-16T08:10:51.000Z,96456.64
2019-05-16T08:11:57.266Z,96457.33
2019-05-16T08:13:04.861Z,96449.77
2019-05-16T08:14:12.450Z,96454.84
2019-05-16T08:15:21.432Z,96453.30
2019-05-16T08:16:30.574Z,96452.71
2019-05-16T08:17:41.543Z,96449.05
2019-05-16T08:18:50.349Z,96448.42
2019-05-16T08:19:57.030Z,96441.20
2019-05-16T08:21:04.616Z,96444.16
2019-05-16T08:22:12.213Z,96439.79
2019-05-16T08:24:30.933Z,96436.83
2019-05-16T08:25:41.197Z,96434.58
2019-05-16T08:26:51.330Z,96436.44
2019-05-16T08:28:00.568Z,96434.54
2019-05-16T08:29:07.092Z,96434.42
2019-05-16T08:30:14.911Z,96436.42
2019-05-16T08:31:22.489Z,96439.13
2019-05-16T08:32:31.414Z,96439.33
2019-05-16T08:33:41.579Z,96436.13
2019-05-16T08:34:51.400Z,96432.94
2019-05-16T08:36:01.236Z,96434.47
2019-05-16T08:37:30.583Z,96435.17
2019-05-16T08:38:21.097Z,96430.64
2019-05-16T08:39:26.600Z,96428.63
2019-05-16T08:40:59.738Z,96425.77
2019-05-16T08:41:43.497Z,96433.20
2019-05-16T08:42:51.998Z,96431.98
2019-05-16T08:44:01.145Z,96426.65
2019-05-16T08:45:12.441Z,96426.87
2019-05-16T08:46:20.760Z,96427.11
2019-05-16T08:47:32.043Z,96424.73
2019-05-16T08:48:41.969Z,96428.83
2019-05-16T08:49:51.858Z,96425.15
2019-05-16T08:50:56.472Z,96427.15
2019-05-16T08:52:04.075Z,96430.80
2019-05-16T08:53:12.909Z,96427.95
2019-05-16T08:54:21.507Z,96423.33
2019-05-16T08:55:31.368Z,96426.02
2019-05-16T08:56:43.788Z,96423.64
2019-05-16T08:57:52.507Z,96419.97
2019-05-16T08:58:57.813Z,96424.89
2019-05-16T09:00:06.359Z,96423.46
2019-05-16T09:01:14.992Z,96420.60
2019-05-16T09:02:31.567Z,96420.34
2019-05-16T09:03:32.626Z,96415.02
2019-05-16T09:04:43.908Z,96417.81
2019-05-16T09:05:53.003Z,96412.35
2019-05-16T09:07:01.964Z,96410.92
2019-05-16T09:08:09.509Z,96408.19
2019-05-16T09:09:36.581Z,96408.54
2019-05-16T09:10:26.225Z,96442.63
2019-05-16T09:11:44.959Z,96404.86
2019-05-16T09:12:47.364Z,96408.12
2019-05-16T09:13:57.109Z,96402.60
2019-05-16T09:15:03.534Z,96402.91
2019-05-16T09:16:11.347Z,96397.58
2019-05-16T09:17:18.916Z,96407.27
2019-05-16T09:18:28.927Z,96398.50
2019-05-16T09:19:36.865Z,96394.34
2019-05-16T09:20:44.659Z,96398.94
2019-05-16T09:21:52.280Z,96397.47
2019-05-16T09:22:59.912Z,96394.39
2019-05-16T09:24:07.479Z,96397.69
2019-05-16T09:25:18.180Z,96389.27
2019-05-16T09:26:27.595Z,96389.63
2019-05-16T09:27:34.126Z,96385.37
2019-05-16T09:28:41.698Z,96390.09
2019-05-16T09:29:49.297Z,96381.33
2019-05-16T09:30:57.855Z,96385.94
2019-05-16T09:32:16.329Z,96381.89
2019-05-16T09:33:17.682Z,96384.69
2019-05-16T09:34:28.779Z,96382.78
2019-05-16T09:35:37.007Z,96383.47
2019-05-16T09:36:44.475Z,96380.26
2019-05-16T09:37:52.074Z,96385.34
2019-05-16T09:38:59.659Z,96380.00
2019-05-16T09:40:08.879Z,96376.91
2019-05-16T09:41:16.971Z,96376.78
2019-05-16T09:42:24.655Z,96375.31
2019-05-16T09:43:32.242Z,96378.43
2019-05-16T09:44:39.848Z,96378.75
2019-05-16T09:45:47.629Z,96372.39
2019-05-16T09:46:56.952Z,96373.00
2019-05-16T09:48:07.882Z,96370.80
2019-05-16T09:49:22.683Z,96372.36
2019-05-16T09:50:26.540Z,96373.95
2019-05-16T09:51:33.967Z,96368.40
2019-05-16T09:52:42.635Z,96363.19
2019-05-16T09:53:50.218Z,96370.88
2019-05-16T09:54:57.954Z,96367.84
2019-05-16T09:56:07.081Z,96362.02
2019-05-16T09:57:17.282Z,96365.33
2019-05-16T09:58:24.133Z,96367.32
2019-05-16T09:59:31.720Z,96364.10
2019-05-16T10:00:39.796Z,96363.68
2019-05-16T10:01:47.950Z,96362.94
2019-05-16T10:02:57.919Z,96362.54
2019-05-16T10:04:06.732Z,96362.59
2019-05-16T10:05:16.926Z,96365.89
2019-05-16T10:06:24.635Z,96358.77
2019-05-16T10:07:32.893Z,96364.70
2019-05-16T10:08:41.454Z,96353.66
2019-05-16T10:09:50.233Z,96356.92
2019-05-16T10:10:58.100Z,96359.13
2019-05-16T10:12:14.795Z,96356.88
2019-05-16T10:13:17.970Z,96362.64
2019-05-16T10:14:26.717Z,96358.59
2019-05-16T10:15:33.962Z,96360.56
2019-05-16T10:16:42.749Z,96360.91
2019-05-16T10:17:50.531Z,96353.09
2019-05-16T10:18:58.104Z,96349.66
2019-05-16T10:20:07.827Z,96349.52
2019-05-16T10:21:20.344Z,96345.13
2019-05-16T10:22:27.257Z,96353.77
2019-05-16T10:23:36.292Z,96342.05
2019-05-16T10:24:46.307Z,96344.99
2019-05-16T10:25:52.996Z,96347.33
2019-05-16T10:27:00.643Z,96344.94
2019-05-16T10:28:08.229Z,96348.71
2019-05-16T10:29:18.482Z,96347.92
2019-05-16T10:30:26.926Z,96348.83
2019-05-16T10:31:44.686Z,96345.13
2019-05-16T10:32:44.271Z,96344.51
2019-05-16T10:33:51.843Z,96341.12
2019-05-16T10:34:59.416Z,96339.06
2019-05-16T10:36:08.398Z,96338.78
2019-05-16T10:37:17.605Z,96337.69
2019-05-16T10:38:28.516Z,96341.78
2019-05-16T10:39:37.267Z,96340.34
2019-05-16T10:40:44.159Z,96337.94
2019-05-16T10:41:51.772Z,96336.15
2019-05-16T10:42:59.343Z,96335.19
2019-05-16T10:44:08.008Z,96335.53
2019-05-16T10:45:16.822Z,96338.48
2019-05-16T10:46:26.773Z,96334.57
2019-05-16T10:47:33.649Z,96333.61
2019-05-16T10:48:41.239Z,96336.88
2019-05-16T10:49:48.929Z,96333.98
2019-05-16T10:50:57.689Z,96329.80
2019-05-16T10:52:07.239Z,96326.43
2019-05-16T10:53:42.373Z,96324.51
2019-05-16T10:54:27.609Z,96320.42
2019-05-16T10:55:36.896Z,96319.12
2019-05-16T10:56:46.723Z,96320.91
2019-05-16T10:57:53.792Z,96319.12
2019-05-16T10:59:37.912Z,96322.07
2019-05-16T11:00:34.818Z,96322.55
2019-05-16T11:01:27.789Z,96318.30
2019-05-16T11:02:32.538Z,96316.48
2019-05-16T11:03:40.234Z,96316.13
2019-05-16T11:05:00.102Z,96318.40
2019-05-16T11:06:05.391Z,96319.70
2019-05-16T11:07:06.377Z,96317.44
2019-05-16T11:08:13.935Z,96316.95
2019-05-16T11:09:21.626Z,96317.64
2019-05-16T11:10:29.697Z,96317.98
2019-05-16T11:11:37.606Z,96318.30
2019-05-16T11:12:51.122Z,96324.34
2019-05-16T11:13:54.517Z,96320.77
2019-05-16T11:15:02.135Z,96318.50
2019-05-16T11:16:11.234Z,96318.84
2019-05-16T11:17:19.151Z,96313.96
2019-05-16T11:18:27.375Z,96319.04
2019-05-16T11:19:37.165Z,96313.48
2019-05-16T11:20:48.669Z,96314.92
2019-05-16T11:21:53.638Z,96316.85
2019-05-16T11:23:01.222Z,96313.90
2019-05-16T11:24:12.942Z,96316.68
2019-05-16T11:25:27.980Z,96321.70
2019-05-16T11:26:30.167Z,96317.58
2019-05-16T11:27:37.581Z,96316.06
2019-05-16T11:28:48.540Z,96323.21
2019-05-16T11:29:56.587Z,96323.21
2019-05-16T11:31:04.204Z,96315.52
2019-05-16T11:32:11.840Z,96321.56
2019-05-16T11:33:19.415Z,96326.50
2019-05-16T11:34:27.014Z,96322.25
2019-05-16T11:35:34.593Z,96323.07
2019-05-16T11:36:42.183Z,96326.98
2019-05-16T11:37:49.846Z,96326.16
2019-05-16T11:39:01.565Z,96326.50
2019-05-16T11:40:07.701Z,96321.28
2019-05-16T11:41:16.729Z,96319.16
2019-05-16T11:42:24.526Z,96324.86
2019-05-16T11:43:32.112Z,96321.08
2019-05-16T11:44:39.713Z,96320.60
2019-05-16T11:45:47.298Z,96322.87
2019-05-16T11:46:57.464Z,96326.44
2019-05-16T11:48:04.180Z,96328.25
2019-05-16T11:49:11.782Z,96321.39
2019-05-16T11:50:20.519Z,96326.61
2019-05-16T11:51:28.121Z,96320.56
2019-05-16T11:52:53.457Z,96319.74
2019-05-16T11:54:01.026Z,96325.44
2019-05-16T11:55:09.438Z,96328.59
2019-05-16T11:56:17.038Z,96329.56
2019-05-16T11:57:24.773Z,96327.16
2019-05-16T11:58:32.346Z,96328.80
2019-05-16T11:59:40.996Z,96324.06
2019-05-16T12:02:33.304Z,96328.83
2019-05-16T12:03:40.890Z,96329.82
2019-05-16T12:04:48.463Z,96323.09
2019-05-16T12:06:13.481Z,96326.66
2019-05-16T12:07:20.699Z,96324.88
2019-05-16T12:08:28.664Z,96321.99
2019-05-16T12:09:46.596Z,96322.47
2019-05-16T12:11:03.508Z,96323.30
2019-05-16T12:12:10.734Z,96322.81
2019-05-16T12:13:28.168Z,96320.03
2019-05-16T12:14:27.884Z,96323.43
2019-05-16T12:15:53.580Z,96318.08
2019-05-16T12:17:00.794Z,96322.20
2019-05-16T12:18:08.965Z,96314.95
2019-05-16T12:19:18.139Z,96316.73
2019-05-16T12:20:27.399Z,96320.52
2019-05-16T12:21:34.734Z,96318.73
2019-05-16T12:22:42.696Z,96312.69
2019-05-16T12:23:49.924Z,96309.92
2019-05-16T12:24:57.930Z,96309.78
2019-05-16T12:26:07.458Z,96310.13
2019-05-16T12:27:16.660Z,96308.20
2019-05-16T12:28:23.656Z,96303.47
2019-05-16T12:29:31.603Z,96304.77
2019-05-16T12:30:40.500Z,96306.77
2019-05-16T12:31:57.483Z,96311.84
2019-05-16T12:32:58.110Z,96308.41
2019-05-16T12:34:09.630Z,96306.97
2019-05-16T12:35:17.640Z,96302.10
2019-05-16T12:36:26.778Z,96312.22
2019-05-16T12:37:36.936Z,96302.63
2019-05-16T12:38:43.815Z,96306.39
2019-05-16T12:39:51.029Z,96306.26
2019-05-16T12:40:59.092Z,96305.78
2019-05-16T12:42:08.409Z,96308.73
2019-05-16T12:43:18.039Z,96306.46
2019-05-16T12:44:26.881Z,96304.67
2019-05-16T12:45:34.720Z,96303.38
2019-05-16T12:46:41.940Z,96298.64
2019-05-16T12:47:49.903Z,96300.28
2019-05-16T12:48:57.542Z,96298.02
2019-05-16T12:50:07.238Z,96302.27
2019-05-16T12:51:14.464Z,96295.41
2019-05-16T12:52:22.455Z,96301.11
2019-05-16T12:53:32.673Z,96302.41
2019-05-16T12:54:39.304Z,96301.73
2019-05-16T12:55:47.893Z,96301.86
2019-05-16T12:56:58.071Z,96303.78
2019-05-16T12:58:12.758Z,96297.41
2019-05-16T12:59:20.416Z,96291.19
2019-05-16T13:00:23.521Z,96297.84
2019-05-16T13:01:34.200Z,96296.20
2019-05-16T13:02:40.376Z,96297.50
2019-05-16T13:03:48.363Z,96299.97
2019-05-16T13:04:57.574Z,96299.02
2019-05-16T13:06:05.235Z,96297.23
2019-05-16T13:07:12.477Z,96292.97
2019-05-16T13:08:20.472Z,96295.92
2019-05-16T13:09:27.676Z,96294.97
2019-05-16T13:10:37.957Z,96293.15
2019-05-16T13:11:47.084Z,96292.19
2019-05-16T13:12:57.696Z,96284.84
2019-05-16T13:14:06.885Z,96283.06
2019-05-16T13:15:13.729Z,96284.84
2019-05-16T13:16:20.978Z,96281.28
2019-05-16T13:17:29.031Z,96283.55
2019-05-16T13:18:36.956Z,96283.88
2019-05-16T13:19:48.150Z,96284.70
2019-05-16T13:20:53.983Z,96276.41
2019-05-16T13:22:02.006Z,96279.84
2019-05-16T13:23:14.416Z,96285.05
2019-05-16T13:24:19.085Z,96278.19
2019-05-16T13:25:27.261Z,96282.78
2019-05-16T13:26:37.335Z,96282.92
2019-05-16T13:27:44.480Z,96279.16
2019-05-16T13:28:52.418Z,96274.72
2019-05-16T13:29:59.652Z,96272.25
2019-05-16T13:31:08.015Z,96270.74
2019-05-16T13:32:17.266Z,96268.41
2019-05-16T13:33:27.133Z,96269.03
2019-05-16T13:34:37.848Z,96269.34
2019-05-16T13:35:43.999Z,96270.43
2019-05-16T13:36:51.215Z,96268.58
2019-05-16T13:37:59.161Z,96267.89
2019-05-16T13:39:08.156Z,96261.85
2019-05-16T13:40:17.191Z,96269.33
2019-05-16T13:41:26.851Z,96264.42
2019-05-16T13:42:36.693Z,96264.22
2019-05-16T13:43:42.956Z,96268.26
2019-05-16T13:44:50.929Z,96265.23
2019-05-16T13:45:58.128Z,96262.45
2019-05-16T13:47:07.765Z,96258.34
2019-05-16T13:48:17.213Z,96254.33
2019-05-16T13:49:26.830Z,96261.45
2019-05-16T13:50:36.538Z,96257.02
2019-05-16T13:51:43.273Z,96253.52